createdAt,value
2023-02-22T00:00:29.396Z,100551.50
2023-02-22T00:03:01.462Z,100556.75
2023-02-22T00:05:35.267Z,100551.56
2023-02-22T00:08:09.485Z,100551.50
2023-02-22T00:10:41.549Z,100551.56
2023-02-22T00:13:16.195Z,100552.41
2023-02-22T00:15:49.003Z,100555.00
2023-02-22T00:18:28.090Z,100550.72
2023-02-22T00:21:02.168Z,100551.59
2023-02-22T00:23:52.816Z,100548.97
2023-02-22T00:26:27.214Z,100548.16
2023-02-22T00:29:11.622Z,100553.34
2023-02-22T00:31:41.884Z,100554.19
2023-02-22T08:56:42.317Z,100655.75
2023-02-22T08:59:11.096Z,100652.25
2023-02-22T09:01:39.634Z,100653.72
2023-02-22T09:04:08.128Z,100659.28
2023-02-22T09:06:36.708Z,100668.13
2023-02-22T09:09:05.193Z,100664.69
2023-02-22T09:11:33.406Z,100671.41
2023-02-22T09:14:03.156Z,100674.63
2023-02-22T09:16:32.348Z,100681.19
2023-02-22T09:19:00.829Z,100675.91
2023-02-22T09:21:29.306Z,100681.91
2023-02-22T09:23:57.632Z,100689.97
2023-02-22T09:26:27.717Z,100697.19
2023-02-22T09:28:56.129Z,100696.34
2023-02-22T09:31:26.042Z,100700.72
2023-02-22T09:33:54.423Z,100702.34
2023-02-22T09:36:24.060Z,100702.34
2023-02-22T09:38:54.096Z,100698.91
2023-02-22T09:41:35.191Z,100711.56
2023-02-22T09:44:19.662Z,100705.78
2023-02-22T09:46:51.073Z,100692.59
2023-02-22T09:49:25.116Z,100700.28
2023-02-22T09:52:00.130Z,100708.19
2023-02-22T09:54:35.135Z,100703.13
2023-02-22T09:57:08.786Z,100713.19
2023-02-22T09:59:42.467Z,100717.22
2023-02-22T10:02:26.703Z,100721.75
2023-02-22T10:05:01.665Z,100718.56
2023-02-22T10:07:37.216Z,100704.59
2023-02-22T10:10:06.748Z,100719.72
2023-02-22T10:12:45.431Z,100708.91
2023-02-22T10:15:42.795Z,100704.97
2023-02-22T10:18:55.197Z,100720.09
2023-02-22T10:21:50.875Z,100725.22
2023-02-22T10:24:31.890Z,100718.44
2023-02-22T10:27:03.136Z,100724.81
2023-02-22T10:29:37.587Z,100718.59
2023-02-22T10:32:07.152Z,100724.94
2023-02-22T10:34:42.761Z,100717.72
2023-02-22T10:37:24.399Z,100721.72
2023-02-22T10:39:58.109Z,100718.56
2023-02-22T10:42:28.909Z,100724.31
2023-02-22T10:44:57.366Z,100728.72
2023-02-22T10:47:26.279Z,100728.41
2023-02-22T10:50:00.664Z,100729.09
2023-02-22T10:52:31.501Z,100732.56
2023-02-22T10:55:14.046Z,100744.25
2023-02-22T10:57:47.508Z,100733.31
2023-02-22T11:00:19.834Z,100740.28
2023-02-22T11:02:54.711Z,100737.63
2023-02-22T11:05:37.465Z,100748.06
2023-02-22T11:08:17.547Z,100733.16
2023-02-22T11:10:46.056Z,100751.06
2023-02-22T11:13:27.091Z,100756.47
2023-02-22T11:15:59.704Z,100749.81
2023-02-22T11:18:30.804Z,100754.63
2023-02-22T11:21:10.549Z,100751.38
2023-02-22T11:23:44.843Z,100747.81
2023-02-22T11:26:21.846Z,100762.09
2023-02-22T11:28:56.238Z,100756.75
2023-02-22T11:31:27.455Z,100756.94
2023-02-22T11:33:58.173Z,100762.75
2023-02-22T11:36:38.080Z,100759.09
2023-02-22T11:39:11.627Z,100760.97
2023-02-22T11:41:40.216Z,100762.16
2023-02-22T11:44:23.739Z,100773.06
2023-02-22T11:46:56.012Z,100762.69
2023-02-22T11:49:26.383Z,100763.22
2023-02-22T11:52:14.663Z,100763.34
2023-02-22T11:55:07.254Z,100765.53
2023-02-22T11:57:47.866Z,100772.94
2023-02-22T12:00:25.681Z,100766.19
2023-02-22T12:03:16.897Z,100767.72
2023-02-22T12:06:02.845Z,100762.78
2023-02-22T12:08:45.052Z,100773.31
2023-02-22T12:11:19.519Z,100761.63
2023-02-22T12:14:03.020Z,100764.84
2023-02-22T12:16:44.535Z,100771.91
2023-02-22T12:19:23.279Z,100756.69
2023-02-22T12:21:57.117Z,100760.84
2023-02-22T12:24:36.863Z,100761.09
2023-02-22T12:27:16.923Z,100768.19
2023-02-22T12:29:50.966Z,100762.00
2023-02-22T12:32:55.516Z,100764.84
2023-02-22T12:35:29.156Z,100762.63
2023-02-22T12:38:05.967Z,100768.03
2023-02-22T12:40:52.814Z,100758.66
2023-02-22T12:43:35.531Z,100767.56
2023-02-22T12:46:13.529Z,100764.84
2023-02-22T12:48:56.423Z,100762.69
2023-02-22T12:51:38.985Z,100764.00
2023-02-22T12:54:13.314Z,100772.66
2023-02-22T12:57:03.111Z,100765.56
2023-02-22T12:59:42.852Z,100765.84
2023-02-22T13:02:30.225Z,100756.97
2023-02-22T13:05:09.938Z,100763.25
2023-02-22T13:08:30.043Z,100767.50
2023-02-22T13:11:26.410Z,100769.78
2023-02-22T13:14:27.664Z,100762.06
2023-02-22T13:17:10.619Z,100761.00
2023-02-22T13:20:00.794Z,100758.66
2023-02-22T13:22:50.298Z,100761.03
2023-02-22T13:25:43.872Z,100758.09
2023-02-22T13:28:44.573Z,100757.84
2023-02-22T13:31:55.715Z,100763.63
2023-02-22T13:34:40.411Z,100763.19
2023-02-22T13:37:33.279Z,100787.84
2023-02-22T13:40:26.180Z,100773.22
2023-02-22T13:43:16.511Z,100794.63
2023-02-22T13:46:22.044Z,100792.53
2023-02-22T13:49:20.153Z,100792.69
2023-02-22T13:51:53.101Z,100795.28
2023-02-22T13:54:29.812Z,100796.94
2023-02-22T13:56:59.189Z,100796.75
2023-02-22T13:59:36.812Z,100794.63
2023-02-22T14:02:32.038Z,100785.91
2023-02-22T14:05:00.408Z,100780.09
2023-02-22T14:08:00.013Z,100784.56
2023-02-22T14:10:43.969Z,100778.91
2023-02-22T14:13:14.221Z,100781.00
2023-02-22T14:16:21.137Z,100788.66
2023-02-22T14:18:52.175Z,100791.25
2023-02-22T14:21:22.290Z,100798.81
2023-02-22T14:23:53.754Z,100801.63
2023-02-22T14:26:27.975Z,100794.91
2023-02-22T14:28:59.274Z,100793.94
2023-02-22T14:31:36.532Z,100792.72
2023-02-22T14:34:13.890Z,100788.63
2023-02-22T14:36:52.401Z,100782.88
2023-02-22T14:39:27.501Z,100782.19
2023-02-22T14:42:01.981Z,100784.88
2023-02-22T14:44:36.709Z,100784.31
2023-02-22T14:47:08.464Z,100786.44
2023-02-22T14:49:46.622Z,100772.25
2023-02-22T14:52:24.405Z,100777.13
2023-02-22T14:55:17.882Z,100778.69
2023-02-22T14:58:01.836Z,100786.91
2023-02-22T15:00:42.028Z,100782.84
2023-02-22T15:03:20.540Z,100776.66
2023-02-22T15:05:49.852Z,100780.84
2023-02-22T15:08:28.101Z,100773.13
2023-02-22T15:10:58.984Z,100775.88
2023-02-22T15:13:33.021Z,100774.47
2023-02-22T15:16:03.345Z,100779.28
2023-02-22T15:18:39.803Z,100776.69
2023-02-22T15:21:16.586Z,100780.28
2023-02-22T15:23:47.129Z,100775.84
2023-02-22T15:26:24.522Z,100778.69
2023-02-22T15:28:57.620Z,100775.56
2023-02-22T15:31:31.016Z,100779.31
2023-02-22T15:34:10.594Z,100778.28
2023-02-22T15:36:39.278Z,100776.41
2023-02-22T15:39:09.234Z,100774.78
2023-02-22T15:41:39.913Z,100784.38
2023-02-22T15:44:23.303Z,100786.41
2023-02-22T15:46:54.578Z,100789.22
2023-02-22T15:49:27.850Z,100778.72
2023-02-22T15:52:07.649Z,100789.56
2023-02-22T15:54:46.155Z,100788.19
2023-02-22T15:57:21.790Z,100791.00
2023-02-22T15:59:54.030Z,100787.66
2023-02-22T16:02:37.172Z,100792.22
2023-02-22T16:05:10.164Z,100793.09
2023-02-22T16:07:45.451Z,100792.91
2023-02-22T16:10:29.935Z,100789.31
2023-02-22T16:13:31.512Z,100790.16
2023-02-22T16:16:03.809Z,100795.44
2023-02-22T16:18:34.906Z,100794.78
2023-02-22T16:21:06.950Z,100792.31
2023-02-22T16:23:47.634Z,100794.88
2023-02-22T16:26:30.097Z,100794.09
2023-02-22T16:29:03.658Z,100795.19
2023-02-22T16:31:34.182Z,100801.25
2023-02-22T16:34:03.782Z,100794.97
2023-02-22T16:36:42.211Z,100804.22
2023-02-22T16:39:19.441Z,100802.91
2023-02-22T16:41:48.954Z,100799.22
2023-02-22T16:44:25.915Z,100793.13
2023-02-22T16:46:58.342Z,100796.69
2023-02-22T16:49:30.106Z,100806.44
2023-02-22T16:52:01.856Z,100801.66
2023-02-22T16:54:34.992Z,100799.28
2023-02-22T16:57:05.164Z,100810.72
2023-02-22T16:59:40.023Z,100804.78
2023-02-22T17:02:14.416Z,100805.19
2023-02-22T17:04:49.528Z,100812.81
2023-02-22T17:07:20.572Z,100811.19
2023-02-22T17:09:51.155Z,100811.28
2023-02-22T17:12:19.790Z,100814.97
2023-02-22T17:14:49.498Z,100806.53
2023-02-22T17:17:20.329Z,100815.41
2023-02-22T17:19:48.756Z,100808.72
2023-02-22T17:22:22.326Z,100815.81
2023-02-22T17:24:50.790Z,100816.91
2023-02-22T17:27:19.177Z,100814.59
2023-02-22T17:29:48.149Z,100820.88
2023-02-22T17:32:18.161Z,100820.22
2023-02-22T17:34:46.531Z,100818.72
2023-02-22T17:37:17.283Z,100817.94
2023-02-22T17:39:45.618Z,100820.72
2023-02-22T17:42:15.771Z,100822.56
2023-02-22T17:44:44.150Z,100833.00
2023-02-22T17:47:12.530Z,100829.69
2023-02-22T17:49:42.488Z,100826.34
2023-02-22T17:52:15.681Z,100834.16
2023-02-22T17:54:44.088Z,100824.78
2023-02-22T17:57:12.386Z,100825.69
2023-02-22T17:59:40.881Z,100830.06
2023-02-22T18:02:10.694Z,100828.50
2023-02-22T18:04:40.517Z,100831.94
2023-02-22T18:07:10.361Z,100837.16
2023-02-22T18:09:38.880Z,100836.44
2023-02-22T18:12:07.443Z,100833.06
2023-02-22T18:14:38.853Z,100833.16
2023-02-22T18:17:07.819Z,100834.00
2023-02-22T18:19:36.152Z,100841.81
2023-02-22T18:22:08.438Z,100845.25
2023-02-22T18:24:38.285Z,100845.31
2023-02-22T18:27:07.150Z,100847.06
2023-02-22T18:29:35.552Z,100848.84
2023-02-22T18:32:04.042Z,100858.31
2023-02-22T18:34:33.135Z,100848.03
2023-02-22T18:37:01.536Z,100854.84
2023-02-22T18:39:33.936Z,100860.78
2023-02-22T18:42:03.899Z,100865.03
2023-02-22T18:44:32.518Z,100864.94
2023-02-22T18:47:01.685Z,100867.50
2023-02-22T18:49:30.536Z,100866.63
2023-02-22T18:51:59.731Z,100869.28
2023-02-22T18:54:30.575Z,100872.00
2023-02-22T18:57:00.043Z,100861.78
2023-02-22T18:59:29.967Z,100871.34
2023-02-22T19:01:58.472Z,100867.13
2023-02-22T19:04:27.003Z,100869.84
2023-02-22T19:06:55.505Z,100874.19
2023-02-22T19:09:23.888Z,100869.97
2023-02-22T19:11:54.607Z,100879.50
2023-02-22T19:14:23.498Z,100881.22
2023-02-22T19:16:56.664Z,100880.31
2023-02-22T19:19:26.659Z,100882.06
2023-02-22T19:21:58.828Z,100871.78
2023-02-22T19:24:27.212Z,100870.88
2023-02-22T19:27:00.042Z,100869.06
2023-02-22T19:29:31.398Z,100865.63
2023-02-22T19:32:01.329Z,100860.53
2023-02-22T19:34:31.394Z,100861.47
2023-02-22T19:37:00.972Z,100858.94
2023-02-22T19:39:38.384Z,100865.81
2023-02-22T19:42:10.920Z,100860.69
2023-02-22T19:44:39.654Z,100868.34
2023-02-22T19:47:20.369Z,100865.78
2023-02-22T19:49:51.124Z,100868.22
2023-02-22T19:52:23.074Z,100863.06
2023-02-22T19:54:54.326Z,100855.38
2023-02-22T19:57:24.341Z,100849.41
2023-02-22T19:59:58.980Z,100850.34
2023-02-22T20:02:29.130Z,100842.69
2023-02-22T20:04:57.613Z,100833.28
2023-02-22T20:07:33.871Z,100841.91
2023-02-22T20:10:04.772Z,100841.94
2023-02-22T20:12:37.192Z,100844.59
2023-02-22T20:15:17.561Z,100848.06
2023-02-22T20:17:51.064Z,100836.09
2023-02-22T20:20:24.423Z,100837.81
2023-02-22T20:22:53.380Z,100843.88
2023-02-22T20:25:26.252Z,100837.00
2023-02-22T20:27:56.581Z,100840.47
2023-02-22T20:30:26.453Z,100837.91
2023-02-22T20:33:00.652Z,100836.19
2023-02-22T20:35:36.860Z,100838.75
2023-02-22T20:41:50.936Z,100837.81
2023-02-22T20:44:22.827Z,100832.53
2023-02-22T20:47:16.451Z,100836.66
2023-02-22T20:50:00.692Z,100846.94
2023-02-22T20:52:37.183Z,100852.09
2023-02-22T20:55:06.357Z,100856.44
2023-02-22T20:57:44.136Z,100853.03
2023-02-22T21:06:00.470Z,100859.03
2023-02-22T21:53:34.172Z,100842.41
2023-02-22T23:44:06.624Z,100811.94
2023-02-22T23:47:50.703Z,100802.53
2023-02-22T23:51:52.649Z,100801.69
2023-02-22T23:54:24.635Z,100806.84
2023-02-22T23:56:56.880Z,100799.13
